sensor_id;sensor_type;location;lat;lon;timestamp;P1;durP1;ratioP1;P2;durP2;ratioP2
82244;SDS011;71849;50.096;14.458;2024-02-14T00:01:35;16.45;;;7.35;;
82244;SDS011;71849;50.096;14.458;2024-02-14T00:04:04;18.70;;;8.60;;
82244;SDS011;71849;50.096;14.458;2024-02-14T00:06:34;21.05;;;9.23;;
82244;SDS011;71849;50.096;14.458;2024-02-14T00:09:05;19.38;;;7.78;;
82244;SDS011;71849;50.096;14.458;2024-02-14T00:11:34;24.73;;;9.05;;
82244;SDS011;71849;50.096;14.458;2024-02-14T00:14:05;18.70;;;8.82;;
82244;SDS011;71849;50.096;14.458;2024-02-14T00:16:33;18.95;;;9.52;;
82244;SDS011;71849;50.096;14.458;2024-02-14T00:19:04;19.88;;;9.50;;
82244;SDS011;71849;50.096;14.458;2024-02-14T00:21:32;21.95;;;10.50;;
82244;SDS011;71849;50.096;14.458;2024-02-14T00:24:01;22.13;;;9.98;;
82244;SDS011;71849;50.096;14.458;2024-02-14T00:26:30;22.50;;;10.75;;
82244;SDS011;71849;50.096;14.458;2024-02-14T00:29:01;20.30;;;9.57;;
82244;SDS011;71849;50.096;14.458;2024-02-14T00:31:32;19.63;;;8.65;;
82244;SDS011;71849;50.096;14.458;2024-02-14T00:34:01;16.90;;;7.53;;
82244;SDS011;71849;50.096;14.458;2024-02-14T00:36:30;18.17;;;8.13;;
82244;SDS011;71849;50.096;14.458;2024-02-14T00:38:58;17.45;;;8.00;;
82244;SDS011;71849;50.096;14.458;2024-02-14T00:41:34;21.90;;;8.52;;
82244;SDS011;71849;50.096;14.458;2024-02-14T00:44:02;17.67;;;8.40;;
82244;SDS011;71849;50.096;14.458;2024-02-14T00:46:34;17.52;;;8.55;;
82244;SDS011;71849;50.096;14.458;2024-02-14T00:49:02;18.13;;;8.65;;
82244;SDS011;71849;50.096;14.458;2024-02-14T00:51:32;20.13;;;9.48;;
82244;SDS011;71849;50.096;14.458;2024-02-14T00:54:02;17.05;;;8.10;;
82244;SDS011;71849;50.096;14.458;2024-02-14T00:56:31;19.65;;;8.45;;
82244;SDS011;71849;50.096;14.458;2024-02-14T00:58:59;19.70;;;8.60;;
82244;SDS011;71849;50.096;14.458;2024-02-14T01:01:28;19.13;;;8.35;;
82244;SDS011;71849;50.096;14.458;2024-02-14T01:04:02;15.20;;;7.45;;
82244;SDS011;71849;50.096;14.458;2024-02-14T01:06:30;19.98;;;9.02;;
82244;SDS011;71849;50.096;14.458;2024-02-14T01:08:59;18.00;;;7.90;;
82244;SDS011;71849;50.096;14.458;2024-02-14T01:11:28;20.35;;;7.70;;
82244;SDS011;71849;50.096;14.458;2024-02-14T01:13:57;23.83;;;9.20;;
82244;SDS011;71849;50.096;14.458;2024-02-14T01:16:27;19.63;;;9.55;;
82244;SDS011;71849;50.096;14.458;2024-02-14T01:18:56;20.30;;;9.35;;
82244;SDS011;71849;50.096;14.458;2024-02-14T01:21:27;22.30;;;11.52;;
82244;SDS011;71849;50.096;14.458;2024-02-14T01:23:56;16.50;;;7.90;;
82244;SDS011;71849;50.096;14.458;2024-02-14T01:26:24;19.08;;;10.65;;
82244;SDS011;71849;50.096;14.458;2024-02-14T01:28:53;19.88;;;9.05;;
82244;SDS011;71849;50.096;14.458;2024-02-14T01:31:21;19.30;;;8.85;;
82244;SDS011;71849;50.096;14.458;2024-02-14T01:33:50;16.17;;;8.05;;
82244;SDS011;71849;50.096;14.458;2024-02-14T01:36:18;18.80;;;10.13;;
82244;SDS011;71849;50.096;14.458;2024-02-14T01:38:50;19.10;;;8.77;;
82244;SDS011;71849;50.096;14.458;2024-02-14T01:41:19;15.32;;;8.55;;
82244;SDS011;71849;50.096;14.458;2024-02-14T01:43:48;21.10;;;9.55;;
82244;SDS011;71849;50.096;14.458;2024-02-14T01:46:17;15.77;;;8.23;;
82244;SDS011;71849;50.096;14.458;2024-02-14T01:48:46;18.65;;;8.48;;
82244;SDS011;71849;50.096;14.458;2024-02-14T01:51:15;18.30;;;8.77;;
82244;SDS011;71849;50.096;14.458;2024-02-14T01:53:49;19.50;;;9.15;;
82244;SDS011;71849;50.096;14.458;2024-02-14T01:56:20;19.33;;;8.43;;
82244;SDS011;71849;50.096;14.458;2024-02-14T01:58:48;21.77;;;9.35;;
82244;SDS011;71849;50.096;14.458;2024-02-14T02:01:17;18.38;;;9.15;;
82244;SDS011;71849;50.096;14.458;2024-02-14T02:03:46;15.27;;;8.65;;
82244;SDS011;71849;50.096;14.458;2024-02-14T02:06:14;21.27;;;9.18;;
82244;SDS011;71849;50.096;14.458;2024-02-14T02:08:43;21.10;;;9.48;;
82244;SDS011;71849;50.096;14.458;2024-02-14T02:11:15;19.27;;;8.48;;
82244;SDS011;71849;50.096;14.458;2024-02-14T02:13:45;17.10;;;8.95;;
82244;SDS011;71849;50.096;14.458;2024-02-14T02:16:13;21.70;;;8.88;;
82244;SDS011;71849;50.096;14.458;2024-02-14T02:18:44;17.35;;;8.48;;
82244;SDS011;71849;50.096;14.458;2024-02-14T02:21:13;22.08;;;8.07;;
82244;SDS011;71849;50.096;14.458;2024-02-14T02:23:50;17.83;;;8.27;;
82244;SDS011;71849;50.096;14.458;2024-02-14T02:26:18;21.58;;;9.15;;
82244;SDS011;71849;50.096;14.458;2024-02-14T02:28:47;16.08;;;8.20;;
82244;SDS011;71849;50.096;14.458;2024-02-14T02:31:16;16.17;;;7.55;;
82244;SDS011;71849;50.096;14.458;2024-02-14T02:33:44;15.88;;;7.63;;
82244;SDS011;71849;50.096;14.458;2024-02-14T02:36:13;17.55;;;7.38;;
82244;SDS011;71849;50.096;14.458;2024-02-14T02:38:42;15.75;;;6.97;;
82244;SDS011;71849;50.096;14.458;2024-02-14T02:41:13;14.50;;;7.05;;
82244;SDS011;71849;50.096;14.458;2024-02-14T02:43:43;13.63;;;6.90;;
82244;SDS011;71849;50.096;14.458;2024-02-14T02:46:14;15.02;;;8.10;;
82244;SDS011;71849;50.096;14.458;2024-02-14T02:48:43;18.23;;;8.60;;
82244;SDS011;71849;50.096;14.458;2024-02-14T02:51:12;15.05;;;7.00;;
82244;SDS011;71849;50.096;14.458;2024-02-14T02:53:43;18.38;;;8.05;;
82244;SDS011;71849;50.096;14.458;2024-02-14T02:56:14;18.88;;;8.23;;
82244;SDS011;71849;50.096;14.458;2024-02-14T02:58:43;19.48;;;7.63;;
82244;SDS011;71849;50.096;14.458;2024-02-14T03:01:13;16.70;;;8.30;;
82244;SDS011;71849;50.096;14.458;2024-02-14T03:03:42;14.25;;;7.40;;
82244;SDS011;71849;50.096;14.458;2024-02-14T03:06:10;15.95;;;7.43;;
82244;SDS011;71849;50.096;14.458;2024-02-14T03:08:39;13.77;;;7.60;;
82244;SDS011;71849;50.096;14.458;2024-02-14T03:11:07;13.65;;;6.80;;
82244;SDS011;71849;50.096;14.458;2024-02-14T03:13:40;15.82;;;6.70;;
82244;SDS011;71849;50.096;14.458;2024-02-14T03:16:09;15.52;;;5.60;;
82244;SDS011;71849;50.096;14.458;2024-02-14T03:18:40;12.23;;;5.30;;
82244;SDS011;71849;50.096;14.458;2024-02-14T03:21:08;13.52;;;6.72;;
82244;SDS011;71849;50.096;14.458;2024-02-14T03:23:37;11.93;;;6.07;;
82244;SDS011;71849;50.096;14.458;2024-02-14T03:26:06;12.82;;;6.35;;
82244;SDS011;71849;50.096;14.458;2024-02-14T03:28:36;13.95;;;6.60;;
82244;SDS011;71849;50.096;14.458;2024-02-14T03:31:07;18.52;;;7.07;;
82244;SDS011;71849;50.096;14.458;2024-02-14T03:33:40;17.42;;;7.07;;
82244;SDS011;71849;50.096;14.458;2024-02-14T03:36:09;15.20;;;6.53;;
82244;SDS011;71849;50.096;14.458;2024-02-14T03:38:37;12.48;;;7.03;;
82244;SDS011;71849;50.096;14.458;2024-02-14T03:41:11;12.02;;;6.10;;
82244;SDS011;71849;50.096;14.458;2024-02-14T03:43:39;14.00;;;6.20;;
82244;SDS011;71849;50.096;14.458;2024-02-14T03:46:11;15.95;;;5.90;;
82244;SDS011;71849;50.096;14.458;2024-02-14T03:48:40;17.45;;;6.53;;
82244;SDS011;71849;50.096;14.458;2024-02-14T03:51:12;15.85;;;6.80;;
82244;SDS011;71849;50.096;14.458;2024-02-14T03:53:41;12.70;;;6.43;;
82244;SDS011;71849;50.096;14.458;2024-02-14T03:56:10;14.07;;;6.88;;
82244;SDS011;71849;50.096;14.458;2024-02-14T03:58:39;13.50;;;6.15;;
82244;SDS011;71849;50.096;14.458;2024-02-14T04:01:10;16.20;;;6.43;;
82244;SDS011;71849;50.096;14.458;2024-02-14T04:03:39;16.17;;;7.22;;
82244;SDS011;71849;50.096;14.458;2024-02-14T04:06:07;15.00;;;6.65;;
82244;SDS011;71849;50.096;14.458;2024-02-14T04:08:36;16.30;;;7.05;;
82244;SDS011;71849;50.096;14.458;2024-02-14T04:11:04;13.85;;;6.90;;
82244;SDS011;71849;50.096;14.458;2024-02-14T04:13:33;15.48;;;6.68;;
82244;SDS011;71849;50.096;14.458;2024-02-14T04:16:01;14.85;;;6.75;;
82244;SDS011;71849;50.096;14.458;2024-02-14T04:18:33;14.98;;;7.00;;
82244;SDS011;71849;50.096;14.458;2024-02-14T04:21:01;11.82;;;5.82;;
82244;SDS011;71849;50.096;14.458;2024-02-14T04:23:30;14.23;;;6.68;;
82244;SDS011;71849;50.096;14.458;2024-02-14T04:25:58;14.25;;;6.38;;
82244;SDS011;71849;50.096;14.458;2024-02-14T04:28:27;13.27;;;6.00;;
82244;SDS011;71849;50.096;14.458;2024-02-14T04:30:56;13.68;;;6.55;;
82244;SDS011;71849;50.096;14.458;2024-02-14T04:33:24;26.50;;;7.45;;
82244;SDS011;71849;50.096;14.458;2024-02-14T04:35:57;15.25;;;7.13;;
82244;SDS011;71849;50.096;14.458;2024-02-14T04:38:25;14.45;;;5.97;;
82244;SDS011;71849;50.096;14.458;2024-02-14T04:40:55;13.25;;;6.30;;
82244;SDS011;71849;50.096;14.458;2024-02-14T04:43:25;16.15;;;7.25;;
82244;SDS011;71849;50.096;14.458;2024-02-14T04:45:54;17.23;;;6.90;;
82244;SDS011;71849;50.096;14.458;2024-02-14T04:48:22;13.55;;;6.13;;
82244;SDS011;71849;50.096;14.458;2024-02-14T04:50:51;11.73;;;5.80;;
82244;SDS011;71849;50.096;14.458;2024-02-14T04:53:23;13.80;;;6.40;;
82244;SDS011;71849;50.096;14.458;2024-02-14T04:55:51;16.33;;;6.57;;
82244;SDS011;71849;50.096;14.458;2024-02-14T04:58:20;13.23;;;6.43;;
82244;SDS011;71849;50.096;14.458;2024-02-14T05:00:48;14.45;;;6.00;;
82244;SDS011;71849;50.096;14.458;2024-02-14T05:03:20;12.45;;;6.90;;
82244;SDS011;71849;50.096;14.458;2024-02-14T05:05:49;16.17;;;6.00;;
82244;SDS011;71849;50.096;14.458;2024-02-14T05:08:17;14.98;;;6.97;;
82244;SDS011;71849;50.096;14.458;2024-02-14T05:10:49;16.40;;;6.78;;
82244;SDS011;71849;50.096;14.458;2024-02-14T05:13:17;17.15;;;7.47;;
82244;SDS011;71849;50.096;14.458;2024-02-14T05:15:45;14.02;;;6.72;;
82244;SDS011;71849;50.096;14.458;2024-02-14T05:18:16;14.38;;;6.85;;
82244;SDS011;71849;50.096;14.458;2024-02-14T05:20:45;14.18;;;7.50;;
82244;SDS011;71849;50.096;14.458;2024-02-14T05:23:13;16.13;;;6.93;;
82244;SDS011;71849;50.096;14.458;2024-02-14T05:25:42;14.85;;;6.70;;
82244;SDS011;71849;50.096;14.458;2024-02-14T05:28:15;19.35;;;7.80;;
82244;SDS011;71849;50.096;14.458;2024-02-14T05:30:44;14.95;;;6.93;;
82244;SDS011;71849;50.096;14.458;2024-02-14T05:33:13;16.38;;;6.45;;
82244;SDS011;71849;50.096;14.458;2024-02-14T05:35:43;14.43;;;7.40;;
82244;SDS011;71849;50.096;14.458;2024-02-14T05:38:12;21.75;;;10.52;;
82244;SDS011;71849;50.096;14.458;2024-02-14T05:40:44;19.60;;;8.10;;
82244;SDS011;71849;50.096;14.458;2024-02-14T05:43:15;15.27;;;7.03;;
82244;SDS011;71849;50.096;14.458;2024-02-14T05:45:45;12.80;;;6.82;;
82244;SDS011;71849;50.096;14.458;2024-02-14T05:48:13;12.38;;;5.53;;
82244;SDS011;71849;50.096;14.458;2024-02-14T05:50:42;14.70;;;6.53;;
82244;SDS011;71849;50.096;14.458;2024-02-14T05:53:10;14.48;;;5.97;;
82244;SDS011;71849;50.096;14.458;2024-02-14T05:55:39;13.18;;;6.63;;
82244;SDS011;71849;50.096;14.458;2024-02-14T05:58:10;17.33;;;7.47;;
82244;SDS011;71849;50.096;14.458;2024-02-14T06:00:44;13.10;;;6.03;;
82244;SDS011;71849;50.096;14.458;2024-02-14T06:03:12;12.15;;;5.90;;
82244;SDS011;71849;50.096;14.458;2024-02-14T06:05:41;15.27;;;6.72;;
82244;SDS011;71849;50.096;14.458;2024-02-14T06:08:09;13.98;;;6.75;;
82244;SDS011;71849;50.096;14.458;2024-02-14T06:10:38;12.50;;;5.90;;
82244;SDS011;71849;50.096;14.458;2024-02-14T06:13:09;13.38;;;6.78;;
82244;SDS011;71849;50.096;14.458;2024-02-14T06:15:37;9.90;;;5.40;;
82244;SDS011;71849;50.096;14.458;2024-02-14T06:18:08;9.88;;;5.63;;
82244;SDS011;71849;50.096;14.458;2024-02-14T06:20:37;15.05;;;5.88;;
82244;SDS011;71849;50.096;14.458;2024-02-14T06:23:06;12.77;;;6.00;;
82244;SDS011;71849;50.096;14.458;2024-02-14T06:25:35;11.80;;;5.75;;
82244;SDS011;71849;50.096;14.458;2024-02-14T06:28:04;13.02;;;5.50;;
82244;SDS011;71849;50.096;14.458;2024-02-14T06:30:33;15.18;;;6.78;;
82244;SDS011;71849;50.096;14.458;2024-02-14T06:33:02;13.77;;;7.38;;
82244;SDS011;71849;50.096;14.458;2024-02-14T06:35:33;18.02;;;6.72;;
82244;SDS011;71849;50.096;14.458;2024-02-14T06:38:02;15.23;;;5.70;;
82244;SDS011;71849;50.096;14.458;2024-02-14T06:40:32;13.75;;;5.82;;
82244;SDS011;71849;50.096;14.458;2024-02-14T06:43:01;12.18;;;5.35;;
82244;SDS011;71849;50.096;14.458;2024-02-14T06:45:31;15.50;;;5.40;;
82244;SDS011;71849;50.096;14.458;2024-02-14T06:48:00;15.07;;;6.60;;
82244;SDS011;71849;50.096;14.458;2024-02-14T06:50:29;12.68;;;5.68;;
82244;SDS011;71849;50.096;14.458;2024-02-14T06:53:06;15.60;;;5.82;;
82244;SDS011;71849;50.096;14.458;2024-02-14T06:55:35;12.13;;;5.78;;
82244;SDS011;71849;50.096;14.458;2024-02-14T06:58:03;12.07;;;5.72;;
82244;SDS011;71849;50.096;14.458;2024-02-14T07:00:32;12.05;;;5.88;;
82244;SDS011;71849;50.096;14.458;2024-02-14T07:02:58;14.80;;;7.90;;
82244;SDS011;71849;50.096;14.458;2024-02-14T07:05:27;14.00;;;5.90;;
82244;SDS011;71849;50.096;14.458;2024-02-14T07:07:55;13.18;;;6.57;;
82244;SDS011;71849;50.096;14.458;2024-02-14T07:10:26;13.60;;;6.35;;
82244;SDS011;71849;50.096;14.458;2024-02-14T07:12:55;10.13;;;4.60;;
82244;SDS011;71849;50.096;14.458;2024-02-14T07:15:26;16.75;;;6.03;;
82244;SDS011;71849;50.096;14.458;2024-02-14T07:17:56;14.15;;;6.32;;
82244;SDS011;71849;50.096;14.458;2024-02-14T07:20:34;14.93;;;6.30;;
82244;SDS011;71849;50.096;14.458;2024-02-14T07:23:03;18.90;;;8.30;;
82244;SDS011;71849;50.096;14.458;2024-02-14T07:25:35;12.27;;;5.47;;
82244;SDS011;71849;50.096;14.458;2024-02-14T07:28:04;15.48;;;6.47;;
82244;SDS011;71849;50.096;14.458;2024-02-14T07:30:33;10.25;;;5.30;;
82244;SDS011;71849;50.096;14.458;2024-02-14T07:33:01;15.20;;;5.60;;
82244;SDS011;71849;50.096;14.458;2024-02-14T07:35:30;11.52;;;5.32;;
82244;SDS011;71849;50.096;14.458;2024-02-14T07:37:59;13.65;;;5.32;;
82244;SDS011;71849;50.096;14.458;2024-02-14T07:40:27;15.63;;;5.20;;
82244;SDS011;71849;50.096;14.458;2024-02-14T07:42:58;11.65;;;5.30;;
82244;SDS011;71849;50.096;14.458;2024-02-14T07:45:27;14.02;;;5.43;;
82244;SDS011;71849;50.096;14.458;2024-02-14T07:47:56;15.75;;;5.65;;
82244;SDS011;71849;50.096;14.458;2024-02-14T07:50:25;13.23;;;6.60;;
82244;SDS011;71849;50.096;14.458;2024-02-14T07:52:53;11.27;;;5.35;;
82244;SDS011;71849;50.096;14.458;2024-02-14T07:55:22;11.85;;;5.15;;
82244;SDS011;71849;50.096;14.458;2024-02-14T07:57:50;14.20;;;8.38;;
82244;SDS011;71849;50.096;14.458;2024-02-14T08:00:22;11.82;;;6.22;;
82244;SDS011;71849;50.096;14.458;2024-02-14T08:02:51;12.32;;;5.97;;
82244;SDS011;71849;50.096;14.458;2024-02-14T08:05:19;21.33;;;10.77;;
82244;SDS011;71849;50.096;14.458;2024-02-14T08:07:48;16.05;;;8.02;;
82244;SDS011;71849;50.096;14.458;2024-02-14T08:10:17;12.48;;;5.45;;
82244;SDS011;71849;50.096;14.458;2024-02-14T08:12:45;10.50;;;5.38;;
82244;SDS011;71849;50.096;14.458;2024-02-14T08:15:16;10.95;;;4.95;;
82244;SDS011;71849;50.096;14.458;2024-02-14T08:17:53;14.90;;;5.15;;
82244;SDS011;71849;50.096;14.458;2024-02-14T08:20:24;11.73;;;5.40;;
82244;SDS011;71849;50.096;14.458;2024-02-14T08:22:56;11.43;;;5.20;;
82244;SDS011;71849;50.096;14.458;2024-02-14T08:25:25;16.40;;;8.20;;
82244;SDS011;71849;50.096;14.458;2024-02-14T08:27:55;15.70;;;5.68;;
82244;SDS011;71849;50.096;14.458;2024-02-14T08:30:24;12.98;;;5.80;;
82244;SDS011;71849;50.096;14.458;2024-02-14T08:32:55;10.38;;;5.35;;
82244;SDS011;71849;50.096;14.458;2024-02-14T08:35:24;13.45;;;5.20;;
82244;SDS011;71849;50.096;14.458;2024-02-14T08:37:52;14.60;;;5.38;;
82244;SDS011;71849;50.096;14.458;2024-02-14T08:40:21;19.15;;;5.40;;
82244;SDS011;71849;50.096;14.458;2024-02-14T08:42:50;13.68;;;5.03;;
82244;SDS011;71849;50.096;14.458;2024-02-14T08:45:23;11.35;;;5.82;;
82244;SDS011;71849;50.096;14.458;2024-02-14T08:48:07;13.55;;;5.43;;
82244;SDS011;71849;50.096;14.458;2024-02-14T08:50:38;13.13;;;5.47;;
82244;SDS011;71849;50.096;14.458;2024-02-14T08:53:07;14.88;;;5.05;;
82244;SDS011;71849;50.096;14.458;2024-02-14T08:55:36;11.77;;;5.50;;
82244;SDS011;71849;50.096;14.458;2024-02-14T08:58:07;11.75;;;6.28;;
82244;SDS011;71849;50.096;14.458;2024-02-14T09:00:38;16.05;;;5.38;;
82244;SDS011;71849;50.096;14.458;2024-02-14T09:03:12;10.38;;;4.78;;
82244;SDS011;71849;50.096;14.458;2024-02-14T09:05:43;12.77;;;5.32;;
82244;SDS011;71849;50.096;14.458;2024-02-14T09:08:11;10.73;;;4.45;;
82244;SDS011;71849;50.096;14.458;2024-02-14T09:10:40;13.15;;;4.93;;
82244;SDS011;71849;50.096;14.458;2024-02-14T09:13:11;10.13;;;4.82;;
82244;SDS011;71849;50.096;14.458;2024-02-14T09:15:39;11.05;;;4.57;;
82244;SDS011;71849;50.096;14.458;2024-02-14T09:18:08;13.25;;;6.03;;
82244;SDS011;71849;50.096;14.458;2024-02-14T09:20:39;17.67;;;5.82;;
82244;SDS011;71849;50.096;14.458;2024-02-14T09:23:11;10.32;;;4.90;;
82244;SDS011;71849;50.096;14.458;2024-02-14T09:25:44;15.32;;;5.30;;
82244;SDS011;71849;50.096;14.458;2024-02-14T09:28:13;12.20;;;5.13;;
82244;SDS011;71849;50.096;14.458;2024-02-14T09:30:42;11.27;;;5.35;;
82244;SDS011;71849;50.096;14.458;2024-02-14T09:33:10;13.48;;;5.10;;
82244;SDS011;71849;50.096;14.458;2024-02-14T09:35:42;13.23;;;5.60;;
82244;SDS011;71849;50.096;14.458;2024-02-14T09:38:13;11.05;;;4.38;;
82244;SDS011;71849;50.096;14.458;2024-02-14T09:40:41;10.63;;;4.65;;
82244;SDS011;71849;50.096;14.458;2024-02-14T09:43:12;13.68;;;5.38;;
82244;SDS011;71849;50.096;14.458;2024-02-14T09:45:51;12.32;;;4.85;;
82244;SDS011;71849;50.096;14.458;2024-02-14T09:48:20;10.50;;;4.80;;
82244;SDS011;71849;50.096;14.458;2024-02-14T09:51:05;13.30;;;4.93;;
82244;SDS011;71849;50.096;14.458;2024-02-14T09:53:37;8.70;;;4.35;;
82244;SDS011;71849;50.096;14.458;2024-02-14T09:56:08;11.10;;;4.40;;
82244;SDS011;71849;50.096;14.458;2024-02-14T09:58:39;18.95;;;5.18;;
82244;SDS011;71849;50.096;14.458;2024-02-14T10:01:09;10.05;;;4.50;;
82244;SDS011;71849;50.096;14.458;2024-02-14T10:03:38;10.10;;;4.72;;
82244;SDS011;71849;50.096;14.458;2024-02-14T10:08:56;9.88;;;4.18;;
82244;SDS011;71849;50.096;14.458;2024-02-14T10:11:25;11.52;;;5.07;;
82244;SDS011;71849;50.096;14.458;2024-02-14T10:13:57;11.18;;;4.53;;
82244;SDS011;71849;50.096;14.458;2024-02-14T10:16:28;11.30;;;4.28;;
82244;SDS011;71849;50.096;14.458;2024-02-14T10:18:56;16.30;;;5.15;;
82244;SDS011;71849;50.096;14.458;2024-02-14T10:21:27;15.60;;;4.78;;
82244;SDS011;71849;50.096;14.458;2024-02-14T10:23:59;11.77;;;4.50;;
82244;SDS011;71849;50.096;14.458;2024-02-14T10:26:30;10.13;;;5.22;;
82244;SDS011;71849;50.096;14.458;2024-02-14T10:28:59;12.18;;;5.18;;
82244;SDS011;71849;50.096;14.458;2024-02-14T10:31:27;11.52;;;5.13;;
82244;SDS011;71849;50.096;14.458;2024-02-14T10:33:56;11.63;;;4.35;;
82244;SDS011;71849;50.096;14.458;2024-02-14T10:36:34;11.32;;;4.70;;
82244;SDS011;71849;50.096;14.458;2024-02-14T10:39:06;10.25;;;3.72;;
82244;SDS011;71849;50.096;14.458;2024-02-14T10:41:38;9.05;;;4.18;;
82244;SDS011;71849;50.096;14.458;2024-02-14T10:46:36;13.40;;;5.30;;
82244;SDS011;71849;50.096;14.458;2024-02-14T10:49:05;8.77;;;3.75;;
82244;SDS011;71849;50.096;14.458;2024-02-14T10:51:38;10.48;;;3.60;;
82244;SDS011;71849;50.096;14.458;2024-02-14T10:54:13;10.43;;;3.75;;
82244;SDS011;71849;50.096;14.458;2024-02-14T10:56:45;10.85;;;4.40;;
82244;SDS011;71849;50.096;14.458;2024-02-14T10:59:18;7.15;;;3.53;;
82244;SDS011;71849;50.096;14.458;2024-02-14T11:01:49;10.13;;;4.00;;
82244;SDS011;71849;50.096;14.458;2024-02-14T11:04:18;9.73;;;3.72;;
82244;SDS011;71849;50.096;14.458;2024-02-14T11:06:51;8.32;;;3.67;;
82244;SDS011;71849;50.096;14.458;2024-02-14T11:12:00;9.90;;;4.45;;
82244;SDS011;71849;50.096;14.458;2024-02-14T11:14:29;10.18;;;4.18;;
82244;SDS011;71849;50.096;14.458;2024-02-14T11:17:00;9.15;;;3.75;;
82244;SDS011;71849;50.096;14.458;2024-02-14T11:19:30;9.82;;;4.47;;
82244;SDS011;71849;50.096;14.458;2024-02-14T11:22:12;6.80;;;3.05;;
82244;SDS011;71849;50.096;14.458;2024-02-14T11:24:49;9.25;;;3.78;;
82244;SDS011;71849;50.096;14.458;2024-02-14T11:27:18;9.52;;;3.90;;
82244;SDS011;71849;50.096;14.458;2024-02-14T11:29:51;8.52;;;3.80;;
82244;SDS011;71849;50.096;14.458;2024-02-14T11:32:21;8.82;;;3.40;;
82244;SDS011;71849;50.096;14.458;2024-02-14T11:34:54;8.98;;;3.60;;
82244;SDS011;71849;50.096;14.458;2024-02-14T11:37:29;12.32;;;3.35;;
82244;SDS011;71849;50.096;14.458;2024-02-14T11:40:00;11.90;;;4.70;;
82244;SDS011;71849;50.096;14.458;2024-02-14T11:42:32;11.43;;;3.65;;
82244;SDS011;71849;50.096;14.458;2024-02-14T11:45:01;10.63;;;3.30;;
82244;SDS011;71849;50.096;14.458;2024-02-14T11:47:30;8.05;;;2.75;;
82244;SDS011;71849;50.096;14.458;2024-02-14T11:49:59;8.60;;;2.95;;
82244;SDS011;71849;50.096;14.458;2024-02-14T11:52:33;5.18;;;1.60;;
82244;SDS011;71849;50.096;14.458;2024-02-14T11:55:04;7.35;;;1.83;;
82244;SDS011;71849;50.096;14.458;2024-02-14T11:57:34;6.03;;;2.05;;
82244;SDS011;71849;50.096;14.458;2024-02-14T12:00:06;7.47;;;1.75;;
82244;SDS011;71849;50.096;14.458;2024-02-14T12:02:37;4.95;;;1.88;;
82244;SDS011;71849;50.096;14.458;2024-02-14T12:05:07;7.40;;;1.95;;
82244;SDS011;71849;50.096;14.458;2024-02-14T12:07:39;5.53;;;1.70;;
82244;SDS011;71849;50.096;14.458;2024-02-14T12:10:09;4.90;;;2.15;;
82244;SDS011;71849;50.096;14.458;2024-02-14T12:12:44;4.07;;;1.67;;
82244;SDS011;71849;50.096;14.458;2024-02-14T12:15:13;4.50;;;1.60;;
82244;SDS011;71849;50.096;14.458;2024-02-14T12:17:42;6.28;;;1.50;;
82244;SDS011;71849;50.096;14.458;2024-02-14T12:20:15;4.70;;;1.98;;
82244;SDS011;71849;50.096;14.458;2024-02-14T12:22:52;4.68;;;1.67;;
82244;SDS011;71849;50.096;14.458;2024-02-14T12:25:20;5.57;;;1.70;;
82244;SDS011;71849;50.096;14.458;2024-02-14T12:27:51;7.68;;;1.70;;
82244;SDS011;71849;50.096;14.458;2024-02-14T12:30:22;7.97;;;2.47;;
82244;SDS011;71849;50.096;14.458;2024-02-14T12:32:57;5.28;;;1.80;;
82244;SDS011;71849;50.096;14.458;2024-02-14T12:35:33;7.78;;;1.83;;
82244;SDS011;71849;50.096;14.458;2024-02-14T12:38:10;6.55;;;2.33;;
82244;SDS011;71849;50.096;14.458;2024-02-14T12:40:42;5.50;;;1.52;;
82244;SDS011;71849;50.096;14.458;2024-02-14T12:43:11;4.95;;;2.17;;
82244;SDS011;71849;50.096;14.458;2024-02-14T12:45:42;7.63;;;2.10;;
82244;SDS011;71849;50.096;14.458;2024-02-14T12:48:12;7.88;;;2.75;;
82244;SDS011;71849;50.096;14.458;2024-02-14T12:50:41;5.32;;;1.75;;
82244;SDS011;71849;50.096;14.458;2024-02-14T12:53:16;4.90;;;1.50;;
82244;SDS011;71849;50.096;14.458;2024-02-14T12:55:47;5.60;;;1.98;;
82244;SDS011;71849;50.096;14.458;2024-02-14T12:58:15;6.30;;;1.75;;
82244;SDS011;71849;50.096;14.458;2024-02-14T13:00:46;8.40;;;2.40;;
82244;SDS011;71849;50.096;14.458;2024-02-14T13:03:14;4.72;;;1.63;;
82244;SDS011;71849;50.096;14.458;2024-02-14T13:05:43;5.32;;;1.60;;
82244;SDS011;71849;50.096;14.458;2024-02-14T13:08:12;5.95;;;1.92;;
82244;SDS011;71849;50.096;14.458;2024-02-14T13:10:44;6.05;;;1.90;;
82244;SDS011;71849;50.096;14.458;2024-02-14T13:13:13;5.45;;;1.73;;
82244;SDS011;71849;50.096;14.458;2024-02-14T13:15:42;5.20;;;1.90;;
82244;SDS011;71849;50.096;14.458;2024-02-14T13:18:10;4.50;;;1.70;;
82244;SDS011;71849;50.096;14.458;2024-02-14T13:20:39;5.32;;;1.73;;
82244;SDS011;71849;50.096;14.458;2024-02-14T13:25:39;5.80;;;1.98;;
82244;SDS011;71849;50.096;14.458;2024-02-14T13:28:10;5.00;;;1.60;;
82244;SDS011;71849;50.096;14.458;2024-02-14T13:30:39;6.00;;;2.17;;
82244;SDS011;71849;50.096;14.458;2024-02-14T13:33:07;4.82;;;1.70;;
82244;SDS011;71849;50.096;14.458;2024-02-14T13:35:37;6.13;;;1.95;;
82244;SDS011;71849;50.096;14.458;2024-02-14T13:38:06;7.07;;;2.90;;
82244;SDS011;71849;50.096;14.458;2024-02-14T13:40:35;5.43;;;1.80;;
82244;SDS011;71849;50.096;14.458;2024-02-14T13:43:04;6.28;;;1.70;;
82244;SDS011;71849;50.096;14.458;2024-02-14T13:45:39;8.88;;;2.22;;
82244;SDS011;71849;50.096;14.458;2024-02-14T13:48:10;7.95;;;2.17;;
82244;SDS011;71849;50.096;14.458;2024-02-14T13:50:39;10.30;;;2.50;;
82244;SDS011;71849;50.096;14.458;2024-02-14T13:53:08;8.18;;;2.30;;
82244;SDS011;71849;50.096;14.458;2024-02-14T13:55:37;6.28;;;2.35;;
82244;SDS011;71849;50.096;14.458;2024-02-14T13:58:05;5.78;;;1.70;;
82244;SDS011;71849;50.096;14.458;2024-02-14T14:00:41;5.38;;;1.55;;
82244;SDS011;71849;50.096;14.458;2024-02-14T14:03:10;5.65;;;1.83;;
82244;SDS011;71849;50.096;14.458;2024-02-14T14:05:39;4.90;;;1.58;;
82244;SDS011;71849;50.096;14.458;2024-02-14T14:08:10;4.30;;;1.80;;
82244;SDS011;71849;50.096;14.458;2024-02-14T14:10:39;4.25;;;1.58;;
82244;SDS011;71849;50.096;14.458;2024-02-14T14:13:09;5.97;;;1.75;;
82244;SDS011;71849;50.096;14.458;2024-02-14T14:15:41;5.05;;;1.40;;
82244;SDS011;71849;50.096;14.458;2024-02-14T14:18:10;8.00;;;1.55;;
82244;SDS011;71849;50.096;14.458;2024-02-14T14:20:38;4.22;;;1.50;;
82244;SDS011;71849;50.096;14.458;2024-02-14T14:23:07;3.97;;;1.60;;
82244;SDS011;71849;50.096;14.458;2024-02-14T14:25:36;4.70;;;1.55;;
82244;SDS011;71849;50.096;14.458;2024-02-14T14:28:05;5.07;;;1.33;;
82244;SDS011;71849;50.096;14.458;2024-02-14T14:30:34;9.07;;;2.10;;
82244;SDS011;71849;50.096;14.458;2024-02-14T14:33:06;4.53;;;1.60;;
82244;SDS011;71849;50.096;14.458;2024-02-14T14:35:34;5.57;;;1.40;;
82244;SDS011;71849;50.096;14.458;2024-02-14T14:38:04;5.47;;;1.90;;
82244;SDS011;71849;50.096;14.458;2024-02-14T14:40:32;3.05;;;1.27;;
82244;SDS011;71849;50.096;14.458;2024-02-14T14:43:02;4.00;;;1.40;;
82244;SDS011;71849;50.096;14.458;2024-02-14T14:45:32;4.25;;;1.40;;
82244;SDS011;71849;50.096;14.458;2024-02-14T14:48:06;7.82;;;1.85;;
82244;SDS011;71849;50.096;14.458;2024-02-14T14:50:35;3.08;;;1.23;;